Nearby METAR Reports

 

KSJC - San Jose, California, USA
Distance from station: NE 14km
Updated: 10/07/2020 08:53
Clear
Clear
 Wind from WNW
Wind: WNW 6 km/h
Temperature: 18°C
Dew Point: 13°C
Humidity: 73%
Barometer: 1014.2 hPa
Clouds: Clear
Visibility: 16 km
2020/07/10 06:53 KSJC 100653Z 30003KT 10SM CLR 18/13 A2995 RMK AO2 SLP142 LAST T01830128 $
KNUQ - Moffett Nas/Mtn, California, USA
Distance from station: N 14km
Updated: 10/07/2020 09:15

 Wind from N
Wind: N 9 km/h
Temperature: 17°C
Dew Point: 14°C
Humidity: 83%
Barometer: 1014.6 hPa
Visibility: 16 km
2020/07/10 07:15 KNUQ 100715Z AUTO 36005KT 10SM 17/14 A2996 RMK AO2
 
KPAO - Palo Alto, California, USA
Distance from station: NNW 23km
Updated: 10/07/2020 00:47
NOT Current
Clear
Clear
 Wind from NNW
Wind: NNW 24 km/h
Temperature: 24°C
Dew Point: 16°C
Humidity: 61%
Barometer: 1011.9 hPa
Clouds: Clear
Visibility: 16 km
2020/07/09 22:47 KPAO 092247Z 34013KT 10SM SKC 24/16 A2988 RMK LAST GPS/VOR N/A AT NIGHT.
KRHV - San Jose/Reid, California, USA
Distance from station: ENE 19km
Updated: 10/07/2020 06:50
NOT Current
Clear
Clear
 Wind from WNW
Wind: WNW 9 km/h
Temperature: 22°C
Dew Point: 11°C
Humidity: 50%
Barometer: 1013.5 hPa
Clouds: Clear
Visibility: 16 km
2020/07/10 04:50 KRHV 100450Z 30005KT 10SM SKC 22/11 A2993 RMK LAST
 
KOAK - Oakland, California, USA
Distance from station: NNW 50km
Updated: 10/07/2020 08:53
Clear
Clear
 Wind from WNW
Wind: WNW 11 km/h
Temperature: 16°C
Dew Point: 12°C
Humidity: 77%
Barometer: 1014.2 hPa
Clouds: Clear
Visibility: 16 km
2020/07/10 06:53 KOAK 100653Z 30006KT 10SM CLR 16/12 A2995 RMK AO2 SLP142 T01610117
KSQL - San Carlos Airpo, California, USA
Distance from station: NW 34km
Updated: 10/07/2020 09:15
Clear
Clear
 Wind from calm
Wind: Calm
Temperature: 17°C
Dew Point: 11°C
Humidity: 68%
Barometer: 1014.6 hPa
Clouds: Clear
Visibility: 16 km
2020/07/10 07:15 KSQL 100715Z AUTO 00000KT 10SM CLR 17/11 A2996 RMK AO2
 
KSFO - San Francisco, California, USA
Distance from station: NW 49km
Updated: 10/07/2020 08:56
Clear
Clear
 Wind from NW
Wind: NW 33 km/h
Temperature: 13°C
Dew Point: 10°C
Humidity: 82%
Barometer: 1014.2 hPa
Clouds: Clear
Visibility: 16 km
2020/07/10 06:56 KSFO 100656Z 31018KT 10SM CLR 13/10 A2995 RMK AO2 SLP141 T01330100
KE16 - San Martin, California, USA
Distance from station: ESE 43km
Updated: 10/07/2020 09:10
Clear
Clear
 Wind from calm
Wind: Calm
Temperature: 17°C
Dew Point: 10°C
Humidity: 64%
Barometer: 1014.9 hPa
Clouds: Clear
Visibility: 16 km
2020/07/10 07:10 KE16 100710Z AUTO 00000KT 10SM CLR 17/10 A2997 RMK AO2 PWINO PNO
 
KWVI - Watsonville, California, USA
Distance from station: SSE 44km
Updated: 10/07/2020 08:53
Clear
Clear
 Wind from calm
Wind: Calm
Temperature: 13°C
Dew Point: 12°C
Humidity: 94%
Barometer: 1014.9 hPa
Clouds: Clear
Visibility: 16 km
2020/07/10 06:53 KWVI 100653Z AUTO 00000KT 10SM CLR 13/12 A2997 RMK AO2 SLP147 T01330117
KHAF - Half Moon Bay, California, USA
Distance from station: WNW 50km
Updated: 10/07/2020 09:20
Mist, Clear
Mist, Clear
 Wind from NW
Wind: NW 13 km/h
Temperature: 12°C
Dew Point: 10°C
Humidity: 88%
Barometer: 1015.6 hPa
Summary: Mist
Clouds: Clear
Visibility: 10 km
2020/07/10 07:20 KHAF 100720Z AUTO 32007KT 6SM BR CLR 12/10 A2999 RMK AO2
 
KHWD - Hayward, California, USA
Distance from station: N 44km
Updated: 10/07/2020 08:54
Clear
Clear
 Wind from calm
Wind: Calm
Temperature: 17°C
Dew Point: 12°C
Humidity: 73%
Barometer: 1013.9 hPa
Clouds: Clear
Visibility: 16 km
2020/07/10 06:54 KHWD 100654Z AUTO 00000KT 10SM CLR 17/12 A2994 RMK AO2 SLP149 T01720117
KLVK - Livermore, California, USA
Distance from station: NNE 51km
Updated: 10/07/2020 08:53
Clear
Clear
 Wind from WNW
Wind: WNW 7 km/h
Temperature: 21°C
Dew Point: 11°C
Humidity: 53%
Barometer: 1013.2 hPa
Clouds: Clear
Visibility: 16 km
2020/07/10 06:53 KLVK 100653Z AUTO 30004KT 10SM CLR 21/11 A2992 RMK AO2 SLP128 T02060106